Stolt Shearwater — ZCRD9 — position and weather

sailwx.info

Track history (hours):
 
Tides and Currents Weather Stations Pressure Air Temp Water Temp Dewpoint Dewpoint Depression Visibility Wind Speed Wind Dir Waves Ship Positions

Stolt Shearwater

Last reported at 2014-Jul-22 14:33 UTC. Time now 2014-Jul-22 15:27 UTC.
Position N 52°57' E 001°35'.

Length 96 m; draft 6.7 m.

Type: Ship (hazmat cat C). MMSI: 319402000.

Date/timePositionNaut miles runAvg speedWind from/ knotsBaromVisibWave heightAir tempDewpointWater temp
2014-Jul-22 14:33N 52°57' E 001°35'9 9.2
2014-Jul-22 13:33N 53°04' E 001°24'9 8.7
2014-Jul-22 12:32N 53°10' E 001°14'27 8.6
2014-Jul-22 09:26N 53°27' E 000°39'7 8.6
2014-Jul-22 08:33N 53°31' E 000°29'9 8.8
2014-Jul-22 07:33N 53°33' E 000°14'1010.2
2014-Jul-22 06:34N 53°36' W 000°02'10 9.6
2014-Jul-22 05:33N 53°42' W 000°14'2 1.2
2014-Jul-22 04:19N 53°44' W 000°15'0 0.0
2014-Jul-22 03:07N 53°44' W 000°15'0 0.0
2014-Jul-22 02:19N 53°44' W 000°15'0 0.0
2014-Jul-22 01:11N 53°44' W 000°15'0 0.0
2014-Jul-22 00:22N 53°44' W 000°15'0 0.0
2014-Jul-21 23:28N 53°44' W 000°15'0 0.0
2014-Jul-21 22:13N 53°44' W 000°15'0 0.0
2014-Jul-21 21:31N 53°44' W 000°15'0 0.0
2014-Jul-21 20:28N 53°44' W 000°15'0 0.0
2014-Jul-21 20:13N 53°44' W 000°15'0 0.0
2014-Jul-21 19:13N 53°44' W 000°15'0 0.0
2014-Jul-21 18:31N 53°44' W 000°15'0 0.0
2014-Jul-21 17:16N 53°44' W 000°15'0 0.0
2014-Jul-21 16:19N 53°44' W 000°15'0 0.0
2014-Jul-21 15:31N 53°44' W 000°15'0 0.0
2014-Jul-21 14:04N 53°44' W 000°15'0 0.0
2014-Jul-21 13:22N 53°44' W 000°15'0 0.0
2014-Jul-21 12:25N 53°44' W 000°15'0 0.0
2014-Jul-21 11:28N 53°44' W 000°15'4 3.9
2014-Jul-21 10:33N 53°40' W 000°13'1110.7
2014-Jul-21 09:34N 53°35' E 000°03'1010.3
2014-Jul-21 08:34N 53°33' E 000°20'10 9.5
2014-Jul-21 07:33N 53°29' E 000°35'1110.6
2014-Jul-21 06:29N 53°23' E 000°51'2110.1
2014-Jul-21 04:23N 53°09' E 001°17'8 9.3
2014-Jul-21 03:33N 53°03' E 001°25'9 8.6
2014-Jul-21 02:33N 52°57' E 001°35'9 8.5
2014-Jul-21 01:33N 52°51' E 001°45'9 9.2
2014-Jul-21 00:33N 52°46' E 001°58'71 8.8
2014-Jul-20 16:28N 51°47' E 003°02'1010.2
2014-Jul-20 15:32N 51°42' E 003°16'1110.9
2014-Jul-20 14:33N 51°33' E 003°25'10 9.7
2014-Jul-20 13:33N 51°26' E 003°36'1110.9
2014-Jul-20 12:33N 51°21' E 003°52'9 9.0
2014-Jul-20 11:31N 51°22' E 004°06'7 7.3
2014-Jul-20 10:34N 51°21' E 004°17'1 1.2
2014-Jul-20 09:33N 51°20' E 004°18'3 3.3
2014-Jul-20 08:33N 51°17' E 004°20'0 0.0
2014-Jul-20 07:33N 51°17' E 004°20'0 0.0
2014-Jul-20 06:33N 51°17' E 004°20'0 0.0
2014-Jul-20 05:21N 51°17' E 004°20'0 0.0
2014-Jul-20 04:33N 51°17' E 004°20'0 0.0
2014-Jul-20 03:12N 51°17' E 004°20'0 0.0
2014-Jul-20 02:15N 51°17' E 004°20'0 0.0
2014-Jul-20 00:09N 51°17' E 004°20'0 0.0
2014-Jul-19 23:18N 51°17' E 004°20'0 0.0
2014-Jul-19 22:24N 51°17' E 004°20'0 0.0
2014-Jul-19 21:30N 51°17' E 004°20'0 0.0
2014-Jul-19 20:12N 51°17' E 004°20'0 0.0
2014-Jul-19 19:18N 51°17' E 004°20'0 0.0
2014-Jul-19 18:30N 51°17' E 004°20'0 0.0
2014-Jul-19 17:15N 51°17' E 004°20'0 0.0
2014-Jul-19 16:33N 51°17' E 004°20'0 0.0
2014-Jul-19 15:33N 51°17' E 004°20'0 0.0
2014-Jul-19 13:33N 51°17' E 004°20'0 0.0
2014-Jul-19 12:30N 51°17' E 004°20'0 0.0
2014-Jul-19 11:34N 51°17' E 004°20'0 0.1
2014-Jul-19 10:31N 51°17' E 004°20'0 0.0
2014-Jul-19 09:31N 51°17' E 004°20'0 0.2
2014-Jul-19 08:33N 51°17' E 004°20'0 0.3
2014-Jul-19 07:33N 51°17' E 004°20'7 7.0
2014-Jul-19 06:33N 51°22' E 004°13'9 9.5
2014-Jul-19 05:34N 51°26' E 003°59'1110.6
2014-Jul-19 04:34N 51°23' E 003°43'9 9.1
2014-Jul-19 03:33N 51°28' E 003°31'1110.9
2014-Jul-19 02:34N 51°37' E 003°21'9 9.4
2014-Jul-19 01:34N 51°46' E 003°17'1 1.2
2014-Jul-19 00:29N 51°47' E 003°19'0 0.1
2014-Jul-18 23:32N 51°47' E 003°19'0 0.1
2014-Jul-18 22:26N 51°48' E 003°19'0 0.0
2014-Jul-18 20:23N 51°48' E 003°19'29 4.9
2014-Jul-18 14:28N 52°01' E 002°38'910.2
2014-Jul-18 13:33N 52°10' E 002°30'1010.3
2014-Jul-18 12:34N 52°18' E 002°22'1110.5
2014-Jul-18 11:32N 52°28' E 002°15'1010.1
2014-Jul-18 10:33N 52°37' E 002°06'1010.1
2014-Jul-18 09:34N 52°45' E 001°58'9 9.2
2014-Jul-18 08:34N 52°50' E 001°46'8 7.9
2014-Jul-18 07:34N 52°56' E 001°36'7 7.0
2014-Jul-18 06:33N 53°01' E 001°28'7 6.9
2014-Jul-18 05:34N 53°06' E 001°21'7 7.2
2014-Jul-18 04:33N 53°12' E 001°13'8 7.5
2014-Jul-18 03:31N 53°17' E 001°04'8 7.9
2014-Jul-18 02:34N 53°22' E 000°54'8 8.4
2014-Jul-18 01:34N 53°26' E 000°42'9 8.6
2014-Jul-18 00:33N 53°31' E 000°29'9 8.8
2014-Jul-17 23:33N 53°33' E 000°15'10 9.8
2014-Jul-17 22:33N 53°35' W 000°01'9 9.2
2014-Jul-17 21:34N 53°41' W 000°13'3 2.1
2014-Jul-17 20:17N 53°44' W 000°15'0 0.0
2014-Jul-17 19:14N 53°44' W 000°15'0 0.0
2014-Jul-17 18:32N 53°44' W 000°15'0 0.0
2014-Jul-17 17:05N 53°44' W 000°15'0 0.0
2014-Jul-17 16:17N 53°44' W 000°15'0 0.0
2014-Jul-17 15:32N 53°44' W 000°15'0 0.0
2014-Jul-17 14:32N 53°44' W 000°15'0 0.0
2014-Jul-17 13:23N 53°44' W 000°15'0 0.0
2014-Jul-17 12:22N 53°44' W 000°15'0 0.0
2014-Jul-17 11:19N 53°44' W 000°15'0 0.0
2014-Jul-17 10:25N 53°44' W 000°15'0 0.0
2014-Jul-17 09:25N 53°44' W 000°15'0 0.0
2014-Jul-17 08:10N 53°44' W 000°15'0 0.0
2014-Jul-17 07:28N 53°44' W 000°15'0 0.0
2014-Jul-17 06:28N 53°44' W 000°15'0 0.0
2014-Jul-17 05:28N 53°44' W 000°15'0 0.0
2014-Jul-17 04:31N 53°44' W 000°15'0 0.0
2014-Jul-17 03:31N 53°44' W 000°15'0 0.0
2014-Jul-17 02:31N 53°44' W 000°15'0 0.0
2014-Jul-17 01:31N 53°44' W 000°15'0 0.0
2014-Jul-17 00:31N 53°44' W 000°15'0 0.0
2014-Jul-16 23:31N 53°44' W 000°15'0 0.0
2014-Jul-16 22:31N 53°44' W 000°15'0 0.3
2014-Jul-16 21:34N 53°43' W 000°15'8 8.4
2014-Jul-16 20:34N 53°37' W 000°05'1212.0
2014-Jul-16 19:34N 53°33' E 000°14'9 9.2
2014-Jul-16 18:33N 53°31' E 000°29'2610.7
2014-Jul-16 16:10N 53°17' E 001°05'812.9
2014-Jul-16 15:33N 53°11' E 001°14'1312.9
2014-Jul-16 14:33N 53°02' E 001°28'1212.1
2014-Jul-16 13:33N 52°53' E 001°41'1010.2
2014-Jul-16 12:33N 52°47' E 001°55'11 8.6
2014-Jul-16 11:18N 52°38' E 002°05'15 8.6
2014-Jul-16 09:33N 52°25' E 002°18'29 9.7
2014-Jul-16 06:33N 51°59' E 002°40'9 8.6
2014-Jul-16 05:30N 51°52' E 002°48'5 5.1
2014-Jul-16 04:33N 51°48' E 002°53'5 4.2
2014-Jul-16 03:28N 51°47' E 003°00'4 3.8
2014-Jul-16 02:28N 51°46' E 003°06'4 3.8
2014-Jul-16 01:33N 51°45' E 003°12'7 7.3
2014-Jul-16 00:34N 51°40' E 003°19'1010.4
2014-Jul-15 23:33N 51°30' E 003°27'8 8.1
2014-Jul-15 22:34N 51°26' E 003°39'1111.2
2014-Jul-15 21:34N 51°22' E 003°55'10 9.6
2014-Jul-15 20:34N 51°24' E 004°11'9 9.2
2014-Jul-15 19:33N 51°17' E 004°20'0 0.0
2014-Jul-15 18:33N 51°17' E 004°20'0 0.2
2014-Jul-15 17:28N 51°17' E 004°20'0 0.0
2014-Jul-15 16:28N 51°17' E 004°20'0 0.0
2014-Jul-15 15:25N 51°17' E 004°20'0 0.0
2014-Jul-15 14:25N 51°17' E 004°20'0 0.0
2014-Jul-15 13:31N 51°17' E 004°20'0 0.0
2014-Jul-15 12:28N 51°17' E 004°20'0 0.0
2014-Jul-15 11:22N 51°17' E 004°20'0 0.0
2014-Jul-15 10:31N 51°17' E 004°20'0 0.0
2014-Jul-15 09:28N 51°17' E 004°20'0 0.0
2014-Jul-15 08:19N 51°17' E 004°20'0 0.0
2014-Jul-15 07:31N 51°17' E 004°20'0 0.0
2014-Jul-15 06:31N 51°17' E 004°20'0 0.0
2014-Jul-15 05:28N 51°17' E 004°20'0 0.0
2014-Jul-15 04:25N 51°17' E 004°20'0 0.0
2014-Jul-15 03:22N 51°17' E 004°20'0 0.0
2014-Jul-15 02:28N 51°17' E 004°20'0 0.0
2014-Jul-15 01:31N 51°17' E 004°20'0 0.0
2014-Jul-15 00:31N 51°17' E 004°20'0 0.0
2014-Jul-14 23:31N 51°17' E 004°20'0 0.0
2014-Jul-14 22:33N 51°17' E 004°20'0 0.0
2014-Jul-14 21:33N 51°17' E 004°20'3 2.6
2014-Jul-14 20:33N 51°19' E 004°19'2 1.9
2014-Jul-14 19:34N 51°21' E 004°17'1 0.9
2014-Jul-14 18:33N 51°21' E 004°16'4 4.2
2014-Jul-14 17:33N 51°24' E 004°11'7 6.9
2014-Jul-14 16:33N 51°26' E 004°00'9 9.2
2014-Jul-14 15:33N 51°21' E 003°48'1110.5
2014-Jul-14 14:33N 51°27' E 003°34'8 8.2
2014-Jul-14 13:31N 51°33' E 003°25'9 8.7
2014-Jul-14 12:31N 51°41' E 003°18'6 1.1
2014-Jul-14 07:05N 51°47' E 003°19'0 0.1
2014-Jul-14 06:26N 51°47' E 003°19'0 0.0
2014-Jul-14 05:32N 51°47' E 003°19'0 0.0
2014-Jul-14 04:26N 51°47' E 003°19'0 0.0
2014-Jul-14 03:20N 51°47' E 003°19'0 0.0
2014-Jul-14 02:29N 51°47' E 003°19'0 0.0
2014-Jul-14 01:26N 51°47' E 003°19'0 0.1
2014-Jul-14 00:32N 51°47' E 003°19'0 0.1
2014-Jul-13 23:17N 51°47' E 003°18'0 0.0
2014-Jul-13 22:05N 51°47' E 003°18'0 0.0
2014-Jul-13 18:20N 51°47' E 003°19'7 2.2
2014-Jul-13 15:09N 51°46' E 003°07'7610.0
2014-Jul-13 07:34N 52°47' E 001°54'1212.2
2014-Jul-13 06:34N 52°55' E 001°38'1211.6
2014-Jul-13 05:34N 53°04' E 001°25'3510.0
2014-Jul-13 02:05N 53°27' E 000°41'5 9.6
2014-Jul-13 01:33N 53°29' E 000°34'9 9.0
2014-Jul-13 00:33N 53°32' E 000°20'9 9.3
2014-Jul-12 23:34N 53°35' E 000°05'1211.6
2014-Jul-12 22:33N 53°40' W 000°13'4 3.9
2014-Jul-12 21:33N 53°44' W 000°15'0 0.0
2014-Jul-12 20:33N 53°44' W 000°15'0 0.0
2014-Jul-12 19:33N 53°44' W 000°15'0 0.0
2014-Jul-12 18:33N 53°44' W 000°15'0 0.0
2014-Jul-12 17:33N 53°44' W 000°15'0 0.0
2014-Jul-12 16:33N 53°44' W 000°15'0 0.0
2014-Jul-12 15:30N 53°44' W 000°15'  
Track history (hours):
 
Tides and Currents Weather Stations Pressure Air Temp Water Temp Dewpoint Dewpoint Depression Visibility Wind Speed Wind Dir Waves Ship Positions

Stolt Shearwater

Last reported at 2014-Jul-22 14:33 UTC. Time now 2014-Jul-22 15:27 UTC.
Position N 52°57' E 001°35'.

Length 96 m; draft 6.7 m.

Type: Ship (hazmat cat C). MMSI: 319402000.

Date/timePositionNaut miles runAvg speedWind from/ knotsBaromVisibWave heightAir tempDewpointWater temp
2014-Jul-22 14:33N 52°57' E 001°35'9 9.2
2014-Jul-22 13:33N 53°04' E 001°24'9 8.7
2014-Jul-22 12:32N 53°10' E 001°14'27 8.6
2014-Jul-22 09:26N 53°27' E 000°39'7 8.6
2014-Jul-22 08:33N 53°31' E 000°29'9 8.8
2014-Jul-22 07:33N 53°33' E 000°14'1010.2
2014-Jul-22 06:34N 53°36' W 000°02'10 9.6
2014-Jul-22 05:33N 53°42' W 000°14'2 1.2
2014-Jul-22 04:19N 53°44' W 000°15'0 0.0
2014-Jul-22 03:07N 53°44' W 000°15'0 0.0
2014-Jul-22 02:19N 53°44' W 000°15'0 0.0
2014-Jul-22 01:11N 53°44' W 000°15'0 0.0
2014-Jul-22 00:22N 53°44' W 000°15'0 0.0
2014-Jul-21 23:28N 53°44' W 000°15'0 0.0
2014-Jul-21 22:13N 53°44' W 000°15'0 0.0
2014-Jul-21 21:31N 53°44' W 000°15'0 0.0
2014-Jul-21 20:28N 53°44' W 000°15'0 0.0
2014-Jul-21 20:13N 53°44' W 000°15'0 0.0
2014-Jul-21 19:13N 53°44' W 000°15'0 0.0
2014-Jul-21 18:31N 53°44' W 000°15'0 0.0
2014-Jul-21 17:16N 53°44' W 000°15'0 0.0
2014-Jul-21 16:19N 53°44' W 000°15'0 0.0
2014-Jul-21 15:31N 53°44' W 000°15'0 0.0
2014-Jul-21 14:04N 53°44' W 000°15'0 0.0
2014-Jul-21 13:22N 53°44' W 000°15'0 0.0
2014-Jul-21 12:25N 53°44' W 000°15'0 0.0
2014-Jul-21 11:28N 53°44' W 000°15'4 3.9
2014-Jul-21 10:33N 53°40' W 000°13'1110.7
2014-Jul-21 09:34N 53°35' E 000°03'1010.3
2014-Jul-21 08:34N 53°33' E 000°20'10 9.5
2014-Jul-21 07:33N 53°29' E 000°35'1110.6
2014-Jul-21 06:29N 53°23' E 000°51'2110.1
2014-Jul-21 04:23N 53°09' E 001°17'8 9.3
2014-Jul-21 03:33N 53°03' E 001°25'9 8.6
2014-Jul-21 02:33N 52°57' E 001°35'9 8.5
2014-Jul-21 01:33N 52°51' E 001°45'9 9.2
2014-Jul-21 00:33N 52°46' E 001°58'71 8.8
2014-Jul-20 16:28N 51°47' E 003°02'1010.2
2014-Jul-20 15:32N 51°42' E 003°16'1110.9
2014-Jul-20 14:33N 51°33' E 003°25'10 9.7
2014-Jul-20 13:33N 51°26' E 003°36'1110.9
2014-Jul-20 12:33N 51°21' E 003°52'9 9.0
2014-Jul-20 11:31N 51°22' E 004°06'7 7.3
2014-Jul-20 10:34N 51°21' E 004°17'1 1.2
2014-Jul-20 09:33N 51°20' E 004°18'3 3.3
2014-Jul-20 08:33N 51°17' E 004°20'0 0.0
2014-Jul-20 07:33N 51°17' E 004°20'0 0.0
2014-Jul-20 06:33N 51°17' E 004°20'0 0.0
2014-Jul-20 05:21N 51°17' E 004°20'0 0.0
2014-Jul-20 04:33N 51°17' E 004°20'0 0.0
2014-Jul-20 03:12N 51°17' E 004°20'0 0.0
2014-Jul-20 02:15N 51°17' E 004°20'0 0.0
2014-Jul-20 00:09N 51°17' E 004°20'0 0.0
2014-Jul-19 23:18N 51°17' E 004°20'0 0.0
2014-Jul-19 22:24N 51°17' E 004°20'0 0.0
2014-Jul-19 21:30N 51°17' E 004°20'0 0.0
2014-Jul-19 20:12N 51°17' E 004°20'0 0.0
2014-Jul-19 19:18N 51°17' E 004°20'0 0.0
2014-Jul-19 18:30N 51°17' E 004°20'0 0.0
2014-Jul-19 17:15N 51°17' E 004°20'0 0.0
2014-Jul-19 16:33N 51°17' E 004°20'0 0.0
2014-Jul-19 15:33N 51°17' E 004°20'0 0.0
2014-Jul-19 13:33N 51°17' E 004°20'0 0.0
2014-Jul-19 12:30N 51°17' E 004°20'0 0.0
2014-Jul-19 11:34N 51°17' E 004°20'0 0.1
2014-Jul-19 10:31N 51°17' E 004°20'0 0.0
2014-Jul-19 09:31N 51°17' E 004°20'0 0.2
2014-Jul-19 08:33N 51°17' E 004°20'0 0.3
2014-Jul-19 07:33N 51°17' E 004°20'7 7.0
2014-Jul-19 06:33N 51°22' E 004°13'9 9.5
2014-Jul-19 05:34N 51°26' E 003°59'1110.6
2014-Jul-19 04:34N 51°23' E 003°43'9 9.1
2014-Jul-19 03:33N 51°28' E 003°31'1110.9
2014-Jul-19 02:34N 51°37' E 003°21'9 9.4
2014-Jul-19 01:34N 51°46' E 003°17'1 1.2
2014-Jul-19 00:29N 51°47' E 003°19'0 0.1
2014-Jul-18 23:32N 51°47' E 003°19'0 0.1
2014-Jul-18 22:26N 51°48' E 003°19'0 0.0
2014-Jul-18 20:23N 51°48' E 003°19'29 4.9
2014-Jul-18 14:28N 52°01' E 002°38'910.2
2014-Jul-18 13:33N 52°10' E 002°30'1010.3
2014-Jul-18 12:34N 52°18' E 002°22'1110.5
2014-Jul-18 11:32N 52°28' E 002°15'1010.1
2014-Jul-18 10:33N 52°37' E 002°06'1010.1
2014-Jul-18 09:34N 52°45' E 001°58'9 9.2
2014-Jul-18 08:34N 52°50' E 001°46'8 7.9
2014-Jul-18 07:34N 52°56' E 001°36'7 7.0
2014-Jul-18 06:33N 53°01' E 001°28'7 6.9
2014-Jul-18 05:34N 53°06' E 001°21'7 7.2
2014-Jul-18 04:33N 53°12' E 001°13'8 7.5
2014-Jul-18 03:31N 53°17' E 001°04'8 7.9
2014-Jul-18 02:34N 53°22' E 000°54'8 8.4
2014-Jul-18 01:34N 53°26' E 000°42'9 8.6
2014-Jul-18 00:33N 53°31' E 000°29'9 8.8
2014-Jul-17 23:33N 53°33' E 000°15'10 9.8
2014-Jul-17 22:33N 53°35' W 000°01'9 9.2
2014-Jul-17 21:34N 53°41' W 000°13'3 2.1
2014-Jul-17 20:17N 53°44' W 000°15'0 0.0
2014-Jul-17 19:14N 53°44' W 000°15'0 0.0
2014-Jul-17 18:32N 53°44' W 000°15'0 0.0
2014-Jul-17 17:05N 53°44' W 000°15'0 0.0
2014-Jul-17 16:17N 53°44' W 000°15'0 0.0
2014-Jul-17 15:32N 53°44' W 000°15'0 0.0
2014-Jul-17 14:32N 53°44' W 000°15'0 0.0
2014-Jul-17 13:23N 53°44' W 000°15'0 0.0
2014-Jul-17 12:22N 53°44' W 000°15'0 0.0
2014-Jul-17 11:19N 53°44' W 000°15'0 0.0
2014-Jul-17 10:25N 53°44' W 000°15'0 0.0
2014-Jul-17 09:25N 53°44' W 000°15'0 0.0
2014-Jul-17 08:10N 53°44' W 000°15'0 0.0
2014-Jul-17 07:28N 53°44' W 000°15'0 0.0
2014-Jul-17 06:28N 53°44' W 000°15'0 0.0
2014-Jul-17 05:28N 53°44' W 000°15'0 0.0
2014-Jul-17 04:31N 53°44' W 000°15'0 0.0
2014-Jul-17 03:31N 53°44' W 000°15'0 0.0
2014-Jul-17 02:31N 53°44' W 000°15'0 0.0
2014-Jul-17 01:31N 53°44' W 000°15'0 0.0
2014-Jul-17 00:31N 53°44' W 000°15'0 0.0
2014-Jul-16 23:31N 53°44' W 000°15'0 0.0
2014-Jul-16 22:31N 53°44' W 000°15'0 0.3
2014-Jul-16 21:34N 53°43' W 000°15'8 8.4
2014-Jul-16 20:34N 53°37' W 000°05'1212.0
2014-Jul-16 19:34N 53°33' E 000°14'9 9.2
2014-Jul-16 18:33N 53°31' E 000°29'2610.7
2014-Jul-16 16:10N 53°17' E 001°05'812.9
2014-Jul-16 15:33N 53°11' E 001°14'1312.9
2014-Jul-16 14:33N 53°02' E 001°28'1212.1
2014-Jul-16 13:33N 52°53' E 001°41'1010.2
2014-Jul-16 12:33N 52°47' E 001°55'11 8.6
2014-Jul-16 11:18N 52°38' E 002°05'15 8.6
2014-Jul-16 09:33N 52°25' E 002°18'29 9.7
2014-Jul-16 06:33N 51°59' E 002°40'9 8.6
2014-Jul-16 05:30N 51°52' E 002°48'5 5.1
2014-Jul-16 04:33N 51°48' E 002°53'5 4.2
2014-Jul-16 03:28N 51°47' E 003°00'4 3.8
2014-Jul-16 02:28N 51°46' E 003°06'4 3.8
2014-Jul-16 01:33N 51°45' E 003°12'7 7.3
2014-Jul-16 00:34N 51°40' E 003°19'1010.4
2014-Jul-15 23:33N 51°30' E 003°27'8 8.1
2014-Jul-15 22:34N 51°26' E 003°39'1111.2
2014-Jul-15 21:34N 51°22' E 003°55'10 9.6
2014-Jul-15 20:34N 51°24' E 004°11'9 9.2
2014-Jul-15 19:33N 51°17' E 004°20'0 0.0
2014-Jul-15 18:33N 51°17' E 004°20'0 0.2
2014-Jul-15 17:28N 51°17' E 004°20'0 0.0
2014-Jul-15 16:28N 51°17' E 004°20'0 0.0
2014-Jul-15 15:25N 51°17' E 004°20'0 0.0
2014-Jul-15 14:25N 51°17' E 004°20'0 0.0
2014-Jul-15 13:31N 51°17' E 004°20'0 0.0
2014-Jul-15 12:28N 51°17' E 004°20'0 0.0
2014-Jul-15 11:22N 51°17' E 004°20'0 0.0
2014-Jul-15 10:31N 51°17' E 004°20'0 0.0
2014-Jul-15 09:28N 51°17' E 004°20'0 0.0
2014-Jul-15 08:19N 51°17' E 004°20'0 0.0
2014-Jul-15 07:31N 51°17' E 004°20'0 0.0
2014-Jul-15 06:31N 51°17' E 004°20'0 0.0
2014-Jul-15 05:28N 51°17' E 004°20'0 0.0
2014-Jul-15 04:25N 51°17' E 004°20'0 0.0
2014-Jul-15 03:22N 51°17' E 004°20'0 0.0
2014-Jul-15 02:28N 51°17' E 004°20'0 0.0
2014-Jul-15 01:31N 51°17' E 004°20'0 0.0
2014-Jul-15 00:31N 51°17' E 004°20'0 0.0
2014-Jul-14 23:31N 51°17' E 004°20'0 0.0
2014-Jul-14 22:33N 51°17' E 004°20'0 0.0
2014-Jul-14 21:33N 51°17' E 004°20'3 2.6
2014-Jul-14 20:33N 51°19' E 004°19'2 1.9
2014-Jul-14 19:34N 51°21' E 004°17'1 0.9
2014-Jul-14 18:33N 51°21' E 004°16'4 4.2
2014-Jul-14 17:33N 51°24' E 004°11'7 6.9
2014-Jul-14 16:33N 51°26' E 004°00'9 9.2
2014-Jul-14 15:33N 51°21' E 003°48'1110.5
2014-Jul-14 14:33N 51°27' E 003°34'8 8.2
2014-Jul-14 13:31N 51°33' E 003°25'9 8.7
2014-Jul-14 12:31N 51°41' E 003°18'6 1.1
2014-Jul-14 07:05N 51°47' E 003°19'0 0.1
2014-Jul-14 06:26N 51°47' E 003°19'0 0.0
2014-Jul-14 05:32N 51°47' E 003°19'0 0.0
2014-Jul-14 04:26N 51°47' E 003°19'0 0.0
2014-Jul-14 03:20N 51°47' E 003°19'0 0.0
2014-Jul-14 02:29N 51°47' E 003°19'0 0.0
2014-Jul-14 01:26N 51°47' E 003°19'0 0.1
2014-Jul-14 00:32N 51°47' E 003°19'0 0.1
2014-Jul-13 23:17N 51°47' E 003°18'0 0.0
2014-Jul-13 22:05N 51°47' E 003°18'0 0.0
2014-Jul-13 18:20N 51°47' E 003°19'7 2.2
2014-Jul-13 15:09N 51°46' E 003°07'7610.0
2014-Jul-13 07:34N 52°47' E 001°54'1212.2
2014-Jul-13 06:34N 52°55' E 001°38'1211.6
2014-Jul-13 05:34N 53°04' E 001°25'3510.0
2014-Jul-13 02:05N 53°27' E 000°41'5 9.6
2014-Jul-13 01:33N 53°29' E 000°34'9 9.0
2014-Jul-13 00:33N 53°32' E 000°20'9 9.3
2014-Jul-12 23:34N 53°35' E 000°05'1211.6
2014-Jul-12 22:33N 53°40' W 000°13'4 3.9
2014-Jul-12 21:33N 53°44' W 000°15'0 0.0
2014-Jul-12 20:33N 53°44' W 000°15'0 0.0
2014-Jul-12 19:33N 53°44' W 000°15'0 0.0
2014-Jul-12 18:33N 53°44' W 000°15'0 0.0
2014-Jul-12 17:33N 53°44' W 000°15'0 0.0
2014-Jul-12 16:33N 53°44' W 000°15'0 0.0
2014-Jul-12 15:30N 53°44' W 000°15'  

Dump ship's entire track history